Nampa, Canada
Current Conditions -  °F | °C
As of 7:00 PM on Friday 31 Oct 2014 (Local Time) from CYPE Reporting Station
Broken Clouds Broken Clouds  
Wind Chill: 36°   Ceiling: 8500
Heat Index: 39°   Visibility: 15mi
Dew Point: 32°   Wind: 5mph
Humidity: 75%   Direction: 170°S
Pressure: 29.64"   Gusts: NA
Location:  56.03°N, 117.12°W
Report Text: CYPE 010100Z 17004KT 160V260 15SM BKN085 04/M00 A2964 RMK AC7 CIG RAG SLP064
Loading
Personal Weather Stations






























Interactive Weather Map
Tropical Storm Tracking
New forecast layout! Learn more

10-Day Weather Forecast

Advertisements
Track Severe Weather on mobile